createdAt,value
2019-05-18T00:02:12.184Z,15.07
2019-05-18T00:04:41.364Z,17.10
2019-05-18T00:07:10.645Z,15.83
2019-05-18T00:09:39.869Z,16.33
2019-05-18T00:12:09.143Z,17.53
2019-05-18T00:14:38.479Z,16.23
2019-05-18T00:17:17.318Z,15.50
2019-05-18T00:19:38.628Z,15.77
2019-05-18T00:22:07.825Z,16.60
2019-05-18T00:24:37.125Z,16.53
2019-05-18T00:27:06.299Z,15.87
2019-05-18T00:29:35.498Z,14.97
2019-05-18T00:32:04.807Z,18.70
2019-05-18T00:34:34.071Z,15.77
2019-05-18T00:37:03.392Z,16.57
2019-05-18T00:39:32.711Z,15.30
2019-05-18T00:42:01.976Z,14.37
2019-05-18T00:44:31.241Z,17.13
2019-05-18T00:47:00.448Z,16.47
2019-05-18T00:49:29.645Z,17.00
2019-05-18T00:51:58.917Z,16.97
2019-05-18T00:54:28.201Z,17.53
2019-05-18T00:56:57.488Z,15.37
2019-05-18T00:59:26.732Z,14.87
2019-05-18T01:01:55.956Z,18.00
2019-05-18T01:04:25.146Z,18.70
2019-05-18T01:06:54.505Z,16.90
2019-05-18T01:09:23.802Z,17.53
2019-05-18T01:11:53.079Z,18.43
2019-05-18T01:14:22.333Z,19.87
2019-05-18T01:16:51.547Z,17.80
2019-05-18T01:19:20.816Z,17.80
2019-05-18T01:21:50.150Z,18.93
2019-05-18T01:24:19.486Z,17.50
2019-05-18T01:26:48.700Z,19.60
2019-05-18T01:29:17.959Z,18.43
2019-05-18T01:31:47.309Z,15.93
2019-05-18T01:34:16.499Z,19.90
2019-05-18T01:36:45.757Z,19.93
2019-05-18T01:39:15.067Z,15.10
2019-05-18T01:41:44.268Z,16.17
2019-05-18T01:44:13.531Z,16.63
2019-05-18T01:46:42.829Z,20.20
2019-05-18T01:49:12.012Z,19.90
2019-05-18T01:51:41.351Z,18.73
2019-05-18T01:54:10.580Z,17.77
2019-05-18T01:56:39.856Z,19.90
2019-05-18T01:59:09.133Z,20.10
2019-05-18T02:01:38.429Z,20.23
2019-05-18T02:04:07.622Z,17.00
2019-05-18T02:06:36.959Z,19.67
2019-05-18T02:09:08.694Z,17.30
2019-05-18T02:11:38.062Z,18.40
2019-05-18T02:14:07.265Z,20.53
2019-05-18T02:16:36.631Z,18.93
2019-05-18T02:19:05.889Z,17.00
2019-05-18T02:21:35.130Z,15.90
2019-05-18T02:24:04.769Z,18.00
2019-05-18T02:26:34.361Z,22.50
2019-05-18T02:29:03.640Z,19.80
2019-05-18T02:31:32.935Z,18.10
2019-05-18T02:34:02.197Z,21.73
2019-05-18T02:36:31.462Z,21.27
2019-05-18T02:39:01.022Z,19.27
2019-05-18T02:41:30.305Z,18.23
2019-05-18T02:43:59.591Z,19.23
2019-05-18T02:46:29.077Z,17.60
2019-05-18T02:48:58.339Z,19.43
2019-05-18T02:51:27.624Z,17.77
2019-05-18T02:53:57.007Z,20.40
2019-05-18T02:56:26.350Z,19.00
2019-05-18T02:58:55.602Z,20.23
2019-05-18T03:01:24.905Z,21.73
2019-05-18T03:03:54.093Z,18.43
2019-05-18T03:06:23.348Z,19.50
2019-05-18T03:08:52.674Z,18.80
2019-05-18T03:11:21.856Z,22.27
2019-05-18T03:13:51.120Z,16.33
2019-05-18T03:16:20.617Z,20.77
2019-05-18T03:19:06.915Z,24.13
2019-05-18T03:21:20.776Z,18.37
2019-05-18T03:23:49.991Z,22.10
2019-05-18T03:26:19.177Z,20.30
2019-05-18T03:28:48.447Z,21.53
2019-05-18T03:31:17.748Z,18.07
2019-05-18T03:33:46.998Z,20.07
2019-05-18T03:36:16.321Z,18.90
2019-05-18T03:38:45.636Z,16.27
2019-05-18T03:41:14.893Z,19.17
2019-05-18T03:43:44.173Z,19.87
2019-05-18T03:46:13.395Z,14.90
2019-05-18T03:48:42.737Z,19.63
2019-05-18T03:51:12.011Z,20.80
2019-05-18T03:53:41.336Z,15.60
2019-05-18T03:56:10.533Z,20.53
2019-05-18T03:58:39.702Z,15.97
2019-05-18T04:01:09.099Z,19.37
2019-05-18T04:03:38.351Z,18.73
2019-05-18T04:06:07.614Z,17.20
2019-05-18T04:08:36.928Z,17.00
2019-05-18T04:11:06.191Z,16.60
2019-05-18T04:13:35.462Z,15.67
2019-05-18T04:16:04.753Z,18.37
2019-05-18T04:18:34.015Z,15.63
2019-05-18T04:21:07.901Z,16.57
2019-05-18T04:23:37.181Z,17.30
2019-05-18T04:26:06.474Z,15.10
2019-05-18T04:28:35.884Z,17.10
2019-05-18T04:31:05.173Z,18.63
2019-05-18T04:33:34.429Z,17.00
2019-05-18T04:36:03.914Z,15.47
2019-05-18T04:38:33.107Z,14.17
2019-05-18T04:41:02.430Z,12.63
2019-05-18T04:43:31.733Z,15.27
2019-05-18T04:46:03.489Z,13.87
2019-05-18T04:48:32.756Z,14.77
2019-05-18T04:51:01.986Z,18.00
2019-05-18T04:53:31.337Z,16.77
2019-05-18T04:56:00.696Z,16.80
2019-05-18T04:58:30.272Z,15.13
2019-05-18T05:00:59.470Z,16.50
2019-05-18T05:03:28.803Z,17.47
2019-05-18T05:05:58.016Z,14.80
2019-05-18T05:08:27.267Z,14.20
2019-05-18T05:10:56.504Z,18.03
2019-05-18T05:13:25.910Z,16.67
2019-05-18T05:15:55.870Z,16.77
2019-05-18T05:18:25.064Z,17.20
2019-05-18T05:20:54.316Z,18.40
2019-05-18T05:23:23.626Z,17.43
2019-05-18T05:25:52.875Z,18.93
2019-05-18T05:28:22.176Z,19.00
2019-05-18T05:30:51.360Z,20.77
2019-05-18T05:33:20.640Z,18.73
2019-05-18T05:35:49.950Z,19.00
2019-05-18T05:38:19.280Z,19.20
2019-05-18T05:40:48.644Z,19.13
2019-05-18T05:43:17.940Z,20.30
2019-05-18T05:45:47.281Z,16.47
2019-05-18T05:48:16.552Z,16.70
2019-05-18T05:50:45.890Z,14.90
2019-05-18T05:53:15.147Z,18.93
2019-05-18T05:55:44.620Z,15.37
2019-05-18T05:58:14.005Z,20.57
2019-05-18T06:00:43.279Z,14.03
2019-05-18T06:03:15.325Z,17.90
2019-05-18T06:05:46.866Z,15.23
2019-05-18T06:08:16.367Z,14.97
2019-05-18T06:10:45.616Z,18.20
2019-05-18T06:13:14.897Z,15.90
2019-05-18T06:15:44.095Z,15.17
2019-05-18T06:18:13.355Z,19.63
2019-05-18T06:20:50.887Z,17.40
2019-05-18T06:23:15.920Z,18.87
2019-05-18T06:25:45.104Z,18.30
2019-05-18T06:28:14.326Z,15.07
2019-05-18T06:30:43.599Z,16.87
2019-05-18T06:33:12.930Z,17.37
2019-05-18T06:35:42.151Z,16.30
2019-05-18T06:38:11.370Z,17.70
2019-05-18T06:40:40.554Z,17.87
2019-05-18T06:43:09.970Z,16.03
2019-05-18T06:45:39.220Z,16.60
2019-05-18T06:48:08.533Z,18.73
2019-05-18T06:50:37.835Z,18.53
2019-05-18T06:53:07.130Z,17.80
2019-05-18T06:55:37.246Z,14.90
2019-05-18T06:58:07.360Z,16.17
2019-05-18T07:00:36.568Z,15.80
2019-05-18T07:03:05.795Z,15.90
2019-05-18T07:05:35.164Z,14.57
2019-05-18T07:08:04.497Z,16.33
2019-05-18T07:10:33.831Z,19.93
2019-05-18T07:13:03.028Z,16.03
2019-05-18T07:15:32.351Z,17.03
2019-05-18T07:18:01.917Z,15.43
2019-05-18T07:20:31.211Z,19.10
2019-05-18T07:23:00.396Z,19.03
2019-05-18T07:25:29.586Z,18.13
2019-05-18T07:27:58.879Z,13.60
2019-05-18T07:30:28.266Z,16.43
2019-05-18T07:32:57.465Z,18.70
2019-05-18T07:35:26.761Z,17.60
2019-05-18T07:37:56.014Z,14.20
2019-05-18T07:40:25.387Z,16.07
2019-05-18T07:42:54.731Z,15.00
2019-05-18T07:45:23.988Z,16.30
2019-05-18T07:47:53.385Z,16.13
2019-05-18T07:50:23.047Z,16.23
2019-05-18T07:52:52.334Z,19.57
2019-05-18T07:55:21.521Z,15.30
2019-05-18T07:57:50.738Z,15.30
2019-05-18T08:00:20.115Z,17.10
2019-05-18T08:02:49.456Z,17.93
2019-05-18T08:05:18.855Z,15.97
2019-05-18T08:07:48.115Z,17.93
2019-05-18T08:10:22.732Z,17.03
2019-05-18T08:12:51.920Z,16.50
2019-05-18T08:15:21.338Z,17.97
2019-05-18T08:17:50.635Z,15.50
2019-05-18T08:20:19.926Z,16.37
2019-05-18T08:22:49.206Z,18.67
2019-05-18T08:25:18.431Z,17.70
2019-05-18T08:27:47.789Z,18.70
2019-05-18T08:30:17.145Z,18.30
2019-05-18T08:32:46.615Z,17.83
2019-05-18T08:35:15.868Z,14.90
2019-05-18T08:37:45.114Z,16.10
2019-05-18T08:40:14.430Z,16.53
2019-05-18T08:42:43.624Z,16.43
2019-05-18T08:45:13.597Z,16.40
2019-05-18T08:47:42.959Z,18.57
2019-05-18T08:50:12.496Z,13.73
2019-05-18T08:52:41.788Z,16.43
2019-05-18T08:55:11.385Z,17.20
2019-05-18T08:57:40.739Z,15.47
2019-05-18T09:00:11.464Z,17.17
2019-05-18T09:02:40.753Z,16.80
2019-05-18T09:05:10.436Z,14.13
2019-05-18T09:07:39.722Z,15.00
2019-05-18T09:10:09.365Z,15.50
2019-05-18T09:12:38.551Z,16.30
2019-05-18T09:15:08.157Z,14.40
2019-05-18T09:17:37.525Z,14.93
2019-05-18T09:20:07.189Z,16.60
2019-05-18T09:22:36.468Z,16.50
2019-05-18T09:25:06.257Z,16.97
2019-05-18T09:27:35.493Z,18.33
2019-05-18T09:30:05.613Z,17.03
2019-05-18T09:32:34.976Z,17.50
2019-05-18T09:35:04.771Z,16.63
2019-05-18T09:37:33.949Z,13.57
2019-05-18T09:40:03.253Z,16.03
2019-05-18T09:42:32.511Z,17.60
2019-05-18T09:45:01.815Z,14.07
2019-05-18T09:47:31.095Z,16.50
2019-05-18T09:50:00.277Z,15.10
2019-05-18T09:52:44.180Z,14.40
2019-05-18T09:55:00.577Z,13.20
2019-05-18T09:57:29.854Z,14.53
2019-05-18T09:59:59.187Z,13.37
2019-05-18T10:02:28.564Z,16.40
2019-05-18T10:04:57.994Z,15.67
2019-05-18T10:07:27.179Z,13.57
2019-05-18T10:09:56.461Z,14.07
2019-05-18T10:12:25.656Z,16.07
2019-05-18T10:14:55.095Z,14.27
2019-05-18T10:17:24.399Z,16.20
2019-05-18T10:19:53.688Z,16.20
2019-05-18T10:22:22.954Z,17.80
2019-05-18T10:24:52.282Z,15.17
2019-05-18T10:27:21.618Z,17.63
2019-05-18T10:29:50.988Z,14.97
2019-05-18T10:32:20.209Z,17.40
2019-05-18T10:34:49.398Z,17.60
2019-05-18T10:37:18.739Z,17.63
2019-05-18T10:39:47.947Z,16.53
2019-05-18T10:42:17.227Z,15.90
2019-05-18T10:44:46.555Z,15.40
2019-05-18T10:47:15.766Z,17.20
2019-05-18T10:49:45.096Z,13.50
2019-05-18T10:52:14.443Z,17.40
2019-05-18T10:54:43.658Z,15.30
2019-05-18T10:57:12.924Z,14.83
2019-05-18T10:59:42.100Z,15.40
2019-05-18T11:02:11.408Z,15.40
2019-05-18T11:04:40.668Z,14.43
2019-05-18T11:07:13.030Z,14.00
2019-05-18T11:09:42.281Z,13.00
2019-05-18T11:12:11.761Z,14.73
2019-05-18T11:14:41.034Z,14.27
2019-05-18T11:17:10.315Z,12.67
2019-05-18T11:19:39.517Z,14.30
2019-05-18T11:22:08.702Z,12.40
2019-05-18T11:24:38.050Z,11.97
2019-05-18T11:27:07.251Z,14.70
2019-05-18T11:29:36.441Z,11.60
2019-05-18T11:32:05.748Z,11.00
2019-05-18T11:34:35.018Z,10.33
2019-05-18T11:37:04.367Z,11.33
2019-05-18T11:39:33.670Z,11.40
2019-05-18T11:42:02.860Z,10.50
2019-05-18T11:44:32.181Z,10.67
2019-05-18T11:47:01.637Z,11.73
2019-05-18T11:49:30.911Z,12.00
2019-05-18T11:52:00.154Z,8.23
2019-05-18T11:54:29.815Z,9.70
2019-05-18T11:56:59.189Z,8.80
2019-05-18T11:59:28.527Z,9.13
2019-05-18T12:01:57.837Z,7.70
2019-05-18T12:04:27.097Z,8.83
2019-05-18T12:06:56.371Z,8.33
2019-05-18T12:09:25.775Z,10.53
2019-05-18T12:11:55.126Z,9.47
2019-05-18T12:14:24.402Z,7.80
2019-05-18T12:16:53.641Z,8.30
2019-05-18T12:19:22.904Z,7.73
2019-05-18T12:21:52.184Z,9.17
2019-05-18T12:24:21.472Z,8.20
2019-05-18T12:26:50.730Z,5.10
2019-05-18T12:29:19.960Z,5.47
2019-05-18T12:31:49.500Z,6.20
2019-05-18T12:34:18.837Z,6.13
2019-05-18T12:36:48.090Z,5.97
2019-05-18T12:39:17.442Z,5.50
2019-05-18T12:41:46.618Z,5.87
2019-05-18T12:44:15.808Z,6.87
2019-05-18T12:46:45.076Z,6.80
2019-05-18T12:49:14.325Z,5.63
2019-05-18T12:51:43.589Z,4.97
2019-05-18T12:54:12.876Z,5.40
2019-05-18T12:56:42.229Z,5.50
2019-05-18T12:59:11.672Z,6.27
2019-05-18T13:01:40.969Z,4.87
2019-05-18T13:04:10.251Z,6.00
2019-05-18T13:06:39.525Z,6.47
2019-05-18T13:09:09.400Z,6.90
2019-05-18T13:11:38.589Z,4.93
2019-05-18T13:14:07.931Z,7.90
2019-05-18T13:16:37.228Z,6.50
2019-05-18T13:19:06.412Z,5.53
2019-05-18T13:21:35.599Z,7.00
2019-05-18T13:24:04.824Z,6.17
2019-05-18T13:26:34.086Z,4.90
2019-05-18T13:29:03.418Z,5.63
2019-05-18T13:31:32.630Z,4.93
2019-05-18T13:34:02.003Z,5.43
2019-05-18T13:36:31.209Z,3.80
2019-05-18T13:39:00.491Z,4.03
2019-05-18T13:41:29.832Z,3.90
2019-05-18T13:43:59.167Z,4.10
2019-05-18T13:46:28.446Z,5.03
2019-05-18T13:48:57.705Z,4.13
2019-05-18T13:51:27.035Z,4.10
2019-05-18T13:53:56.257Z,4.00
2019-05-18T13:56:25.444Z,4.10
2019-05-18T13:58:54.719Z,2.87
2019-05-18T14:01:24.116Z,4.70
2019-05-18T14:03:53.396Z,3.23
2019-05-18T14:06:22.724Z,2.40
2019-05-18T14:08:51.953Z,3.07
2019-05-18T14:11:21.136Z,3.23
2019-05-18T14:13:50.384Z,3.90
2019-05-18T14:16:19.939Z,3.33
2019-05-18T14:18:49.139Z,3.57
2019-05-18T14:21:18.315Z,2.63
2019-05-18T14:23:47.535Z,1.93
2019-05-18T14:26:17.098Z,2.33
2019-05-18T14:28:46.268Z,2.37
2019-05-18T14:31:15.536Z,2.77
2019-05-18T14:33:44.807Z,2.70
2019-05-18T14:36:14.067Z,3.50
2019-05-18T14:38:43.364Z,2.87
2019-05-18T14:41:12.554Z,3.70
2019-05-18T14:43:41.820Z,3.47
2019-05-18T14:46:11.041Z,3.03
2019-05-18T14:48:40.280Z,4.20
2019-05-18T14:51:12.207Z,3.57
2019-05-18T14:53:41.498Z,2.97
2019-05-18T14:56:10.755Z,2.80
2019-05-18T14:58:39.947Z,3.33
2019-05-18T15:01:09.241Z,3.20
2019-05-18T15:03:38.424Z,2.70
2019-05-18T15:06:07.627Z,3.60
2019-05-18T15:08:37.102Z,2.70
2019-05-18T15:11:06.361Z,2.33
2019-05-18T15:13:35.613Z,2.73
2019-05-18T15:16:04.867Z,2.70
2019-05-18T15:18:34.131Z,2.53
2019-05-18T15:21:03.449Z,2.20
2019-05-18T15:23:32.809Z,2.37
2019-05-18T15:26:01.989Z,2.97
2019-05-18T15:28:31.352Z,2.50
2019-05-18T15:31:00.596Z,2.30
2019-05-18T15:33:29.898Z,4.47
2019-05-18T15:35:59.081Z,6.43
2019-05-18T15:38:28.300Z,6.40
2019-05-18T15:40:57.496Z,7.67
2019-05-18T15:43:26.774Z,7.67
2019-05-18T15:45:55.997Z,7.37
2019-05-18T15:48:25.447Z,7.30
2019-05-18T15:50:55.013Z,6.63
2019-05-18T15:53:24.289Z,7.00
2019-05-18T15:56:04.841Z,5.67
2019-05-18T15:58:24.377Z,5.70
2019-05-18T16:00:53.675Z,5.33
2019-05-18T16:03:22.866Z,5.60
2019-05-18T16:05:52.111Z,5.40
2019-05-18T16:08:21.518Z,5.47
2019-05-18T16:10:50.709Z,6.80
2019-05-18T16:13:19.893Z,5.80
2019-05-18T16:15:49.113Z,6.57
2019-05-18T16:18:18.366Z,7.40
2019-05-18T16:20:47.629Z,5.90
2019-05-18T16:23:16.986Z,7.73
2019-05-18T16:25:46.654Z,6.50
2019-05-18T16:28:15.938Z,4.20
2019-05-18T16:30:45.165Z,3.83
2019-05-18T16:33:14.422Z,5.23
2019-05-18T16:35:43.782Z,8.30
2019-05-18T16:38:13.233Z,5.80
2019-05-18T16:40:42.453Z,5.73
2019-05-18T16:43:11.711Z,6.07
2019-05-18T16:45:41.000Z,7.17
2019-05-18T16:48:10.353Z,7.10
2019-05-18T16:50:39.533Z,4.53
2019-05-18T16:53:08.817Z,7.40
2019-05-18T16:55:38.009Z,7.23
2019-05-18T16:58:07.520Z,6.43
2019-05-18T17:00:37.237Z,8.60
2019-05-18T17:03:06.476Z,8.40
2019-05-18T17:05:35.736Z,8.70
2019-05-18T17:08:04.990Z,8.40
2019-05-18T17:10:34.286Z,7.67
2019-05-18T17:13:03.571Z,8.67
2019-05-18T17:15:32.801Z,9.47
2019-05-18T17:18:01.989Z,10.30
2019-05-18T17:20:31.276Z,9.60
2019-05-18T17:23:00.562Z,9.20
2019-05-18T17:25:29.837Z,9.13
2019-05-18T17:27:59.159Z,6.77
2019-05-18T17:30:28.545Z,8.30
2019-05-18T17:32:57.876Z,7.30
2019-05-18T17:35:27.069Z,8.23
2019-05-18T17:37:56.645Z,7.03
2019-05-18T17:40:25.834Z,8.90
2019-05-18T17:42:55.028Z,7.77
2019-05-18T17:45:24.575Z,6.50
2019-05-18T17:47:53.906Z,7.67
2019-05-18T17:50:23.177Z,6.57
2019-05-18T17:52:52.415Z,6.27
2019-05-18T17:55:21.601Z,6.03
2019-05-18T17:57:50.793Z,5.50
2019-05-18T18:00:20.580Z,6.70
2019-05-18T18:02:49.763Z,8.27
2019-05-18T18:05:18.966Z,7.60
2019-05-18T18:07:48.231Z,6.70
2019-05-18T18:10:18.176Z,6.80
2019-05-18T18:12:47.449Z,8.43
2019-05-18T18:15:17.305Z,6.33
2019-05-18T18:17:46.701Z,7.37
2019-05-18T18:20:16.582Z,6.67
2019-05-18T18:22:46.074Z,8.30
2019-05-18T18:25:15.860Z,8.60
2019-05-18T18:27:45.094Z,7.03
2019-05-18T18:30:15.447Z,7.67
2019-05-18T18:32:44.712Z,7.20
2019-05-18T18:35:14.228Z,7.33
2019-05-18T18:37:43.598Z,8.13
2019-05-18T18:40:13.475Z,9.23
2019-05-18T18:42:42.735Z,9.80
2019-05-18T18:45:12.052Z,8.80
2019-05-18T18:47:41.729Z,8.60
2019-05-18T18:50:11.698Z,7.87
2019-05-18T18:52:40.996Z,6.13
2019-05-18T18:55:10.179Z,6.80
2019-05-18T18:57:41.840Z,7.60
2019-05-18T19:00:11.305Z,8.37
2019-05-18T19:02:40.701Z,6.97
2019-05-18T19:05:10.121Z,6.83
2019-05-18T19:07:39.387Z,6.23
2019-05-18T19:10:09.318Z,6.33
2019-05-18T19:12:38.654Z,6.77
2019-05-18T19:15:09.329Z,5.60
2019-05-18T19:17:38.580Z,7.03
2019-05-18T19:20:08.478Z,6.00
2019-05-18T19:22:37.749Z,8.63
2019-05-18T19:25:07.608Z,9.10
2019-05-18T19:27:36.878Z,6.23
2019-05-18T19:30:09.735Z,7.50
2019-05-18T19:32:37.723Z,7.73
2019-05-18T19:35:07.715Z,7.30
2019-05-18T19:37:37.168Z,6.43
2019-05-18T19:40:07.368Z,6.60
2019-05-18T19:42:36.702Z,7.47
2019-05-18T19:45:06.529Z,7.40
2019-05-18T19:47:35.786Z,9.37
2019-05-18T19:50:05.414Z,9.30
2019-05-18T19:52:34.655Z,7.60
2019-05-18T19:55:04.409Z,7.10
2019-05-18T19:57:33.740Z,5.57
2019-05-18T20:00:03.172Z,7.50
2019-05-18T20:02:32.488Z,8.77
2019-05-18T20:05:07.894Z,9.13
2019-05-18T20:07:32.631Z,8.57
2019-05-18T20:10:01.882Z,9.80
2019-05-18T20:12:31.098Z,9.40
2019-05-18T20:15:00.569Z,11.07
2019-05-18T20:17:29.758Z,11.17
2019-05-18T20:19:59.123Z,11.13
2019-05-18T20:22:28.607Z,11.30
2019-05-18T20:24:58.045Z,11.03
2019-05-18T20:27:27.343Z,10.63
2019-05-18T20:29:56.640Z,11.77
2019-05-18T20:32:25.841Z,11.27
2019-05-18T20:38:23.109Z,10.13
2019-05-18T20:40:52.408Z,11.47
2019-05-18T20:43:21.741Z,10.10
2019-05-18T20:45:51.005Z,10.70
2019-05-18T20:48:20.762Z,9.30
2019-05-18T20:50:50.032Z,12.70
2019-05-18T20:53:19.355Z,10.47
2019-05-18T20:55:48.680Z,10.83
2019-05-18T20:58:18.047Z,11.40
2019-05-18T21:00:47.401Z,10.03
2019-05-18T21:03:16.717Z,12.10
2019-05-18T21:05:46.064Z,10.40
2019-05-18T21:08:15.416Z,10.90
2019-05-18T21:10:45.421Z,11.70
2019-05-18T21:13:14.707Z,12.03
2019-05-18T21:15:43.884Z,11.20
2019-05-18T21:18:13.141Z,10.00
2019-05-18T21:20:42.405Z,11.00
2019-05-18T21:23:11.743Z,12.00
2019-05-18T21:25:41.776Z,10.70
2019-05-18T21:28:11.150Z,13.00
2019-05-18T21:30:40.502Z,13.07
2019-05-18T21:33:09.862Z,9.63
2019-05-18T21:35:39.211Z,10.57
2019-05-18T21:38:08.490Z,13.60
2019-05-18T21:40:37.953Z,9.07
2019-05-18T21:43:07.134Z,10.80
2019-05-18T21:45:36.318Z,10.20
2019-05-18T21:48:05.745Z,10.70
2019-05-18T21:50:35.079Z,10.50
2019-05-18T21:53:04.415Z,10.07
2019-05-18T21:55:33.670Z,12.17
2019-05-18T21:58:02.929Z,10.27
2019-05-18T22:00:32.633Z,10.63
2019-05-18T22:03:02.003Z,9.60
2019-05-18T22:05:31.408Z,8.63
2019-05-18T22:08:00.939Z,9.50
2019-05-18T22:10:30.238Z,12.73
2019-05-18T22:12:59.492Z,12.33
2019-05-18T22:15:28.760Z,12.40
2019-05-18T22:18:04.336Z,12.40
2019-05-18T22:20:34.760Z,10.90
2019-05-18T22:23:04.097Z,9.90
2019-05-18T22:25:33.848Z,13.90
2019-05-18T22:28:03.172Z,14.03
2019-05-18T22:30:32.466Z,15.40
2019-05-18T22:33:01.778Z,12.70
2019-05-18T22:35:31.062Z,10.50
2019-05-18T22:38:00.315Z,13.07
2019-05-18T22:40:29.618Z,12.43
2019-05-18T22:42:58.821Z,11.37
2019-05-18T22:45:28.099Z,12.53
2019-05-18T22:47:57.386Z,12.20
2019-05-18T22:50:26.760Z,12.97
2019-05-18T22:52:56.026Z,13.40
2019-05-18T22:55:25.415Z,12.07
2019-05-18T22:57:54.684Z,11.00
2019-05-18T23:00:24.040Z,14.30
2019-05-18T23:02:53.363Z,13.30
2019-05-18T23:05:22.562Z,11.97
2019-05-18T23:07:51.830Z,12.30
2019-05-18T23:10:21.046Z,12.73
2019-05-18T23:12:50.311Z,12.00
2019-05-18T23:15:19.968Z,12.67
2019-05-18T23:17:49.275Z,12.27
2019-05-18T23:20:18.559Z,11.67
2019-05-18T23:22:47.835Z,14.67
2019-05-18T23:25:17.441Z,13.33
2019-05-18T23:27:46.775Z,11.27
2019-05-18T23:30:16.287Z,10.47
2019-05-18T23:32:45.578Z,11.33
2019-05-18T23:35:14.842Z,13.73
2019-05-18T23:37:44.113Z,12.93
2019-05-18T23:40:13.884Z,11.93
2019-05-18T23:42:43.082Z,13.17
2019-05-18T23:45:12.440Z,11.07
2019-05-18T23:47:41.760Z,12.17
2019-05-18T23:50:12.278Z,12.43
2019-05-18T23:52:41.629Z,13.03
2019-05-18T23:55:11.605Z,9.77
2019-05-18T23:57:40.779Z,11.03
